Time;durP1;ratioP1;P1;durP2;ratioP2;P2;SDS_P1;SDS_P2;PMS_P1;PMS_P2;Temp;Humidity;BMP_temperature;BMP_pressure;BME280_temperature;BME280_humidity;BME280_pressure;Samples;Min_cycle;Max_cycle;Signal;HPM_P1;HPM_P2
2023/09/08 00:01:09;;;;;;;4.70;4.15;;;21.30;58.80;;;;;;5027138;28;20048;-56
2023/09/08 00:03:35;;;;;;;6.60;4.43;;;21.30;58.70;;;;;;5026192;28;20434;-55
2023/09/08 00:06:04;;;;;;;4.70;4.18;;;21.30;58.80;;;;;;5029131;28;20046;-52
2023/09/08 00:08:31;;;;;;;4.80;4.30;;;21.30;58.80;;;;;;5028876;28;20045;-52
2023/09/08 00:10:58;;;;;;;5.53;4.60;;;21.30;59.00;;;;;;5024679;28;20034;-54
2023/09/08 00:13:29;;;;;;;6.20;4.57;;;21.20;59.00;;;;;;5027464;28;20132;-56
2023/09/08 00:15:56;;;;;;;5.50;4.97;;;21.20;59.00;;;;;;5029115;28;20061;-53
2023/09/08 00:18:33;;;;;;;5.65;4.05;;;21.20;59.60;;;;;;5026293;28;20415;-56
2023/09/08 00:21:05;;;;;;;4.93;4.45;;;21.20;59.50;;;;;;5026664;28;20482;-55
2023/09/08 00:23:34;;;;;;;5.50;4.07;;;21.10;59.10;;;;;;5025948;28;20111;-56
2023/09/08 00:26:01;;;;;;;6.35;4.50;;;21.10;59.10;;;;;;5028610;28;20038;-55
2023/09/08 00:28:30;;;;;;;4.72;4.22;;;21.10;59.20;;;;;;5025678;28;20052;-56
2023/09/08 00:30:59;;;;;;;6.53;3.95;;;21.10;60.00;;;;;;5026927;28;20128;-53
2023/09/08 00:33:26;;;;;;;5.82;4.00;;;21.00;59.40;;;;;;5024576;28;20036;-55
2023/09/08 00:35:56;;;;;;;4.65;4.25;;;21.00;59.30;;;;;;5014233;28;20034;-55
2023/09/08 00:38:28;;;;;;;4.55;4.15;;;21.00;59.30;;;;;;5030527;28;20048;-55
2023/09/08 00:41:00;;;;;;;4.72;4.32;;;21.00;59.40;;;;;;5032377;28;20041;-55
2023/09/08 00:43:28;;;;;;;6.60;4.63;;;21.00;59.30;;;;;;5030259;28;20039;-54
2023/09/08 00:46:02;;;;;;;6.20;4.40;;;20.90;59.40;;;;;;5032342;28;20037;-53
2023/09/08 00:48:30;;;;;;;5.00;4.50;;;20.90;59.40;;;;;;5030140;28;20423;-56
2023/09/08 00:50:59;;;;;;;5.68;5.18;;;20.90;59.40;;;;;;5029304;28;20107;-53
2023/09/08 00:53:26;;;;;;;5.10;4.60;;;20.90;59.40;;;;;;5031604;28;20449;-55
2023/09/08 00:55:56;;;;;;;4.43;4.03;;;20.80;59.50;;;;;;5031100;28;20034;-52
2023/09/08 00:58:23;;;;;;;5.07;4.18;;;20.80;59.60;;;;;;5027145;28;20049;-55
2023/09/08 01:00:57;;;;;;;6.13;4.78;;;20.80;59.60;;;;;;5027787;28;20081;-55
2023/09/08 01:03:24;;;;;;;5.45;4.72;;;20.80;59.60;;;;;;5025060;28;20056;-56
2023/09/08 01:05:53;;;;;;;5.25;4.55;;;20.70;59.70;;;;;;5024716;28;20042;-52
2023/09/08 01:08:23;;;;;;;5.00;3.88;;;20.70;59.70;;;;;;5023706;28;20068;-54
2023/09/08 01:10:49;;;;;;;6.40;4.03;;;20.70;59.90;;;;;;5030558;28;20124;-55
2023/09/08 01:13:21;;;;;;;5.80;4.72;;;20.70;59.80;;;;;;5027469;28;20038;-54
2023/09/08 01:15:49;;;;;;;5.15;4.40;;;20.60;59.80;;;;;;5030841;28;20061;-55
2023/09/08 01:18:15;;;;;;;5.45;4.30;;;20.60;59.80;;;;;;5025806;28;20045;-55
2023/09/08 01:21:01;;;;;;;4.28;3.88;;;20.60;59.90;;;;;;5030365;28;20097;-53
2023/09/08 01:23:41;;;;;;;5.10;4.47;;;20.60;60.00;;;;;;5030113;28;20068;-55
2023/09/08 01:26:17;;;;;;;4.90;4.40;;;20.60;60.50;;;;;;5029450;28;20045;-54
2023/09/08 01:28:48;;;;;;;4.65;4.20;;;20.50;60.20;;;;;;5027734;28;20100;-56
2023/09/08 01:31:20;;;;;;;5.05;4.55;;;20.50;60.10;;;;;;5032025;28;20049;-52
2023/09/08 01:33:47;;;;;;;5.07;4.63;;;20.50;60.20;;;;;;5028012;28;20284;-52
2023/09/08 01:36:14;;;;;;;5.07;4.50;;;20.40;60.20;;;;;;5030066;28;20042;-52
2023/09/08 01:38:42;;;;;;;4.93;4.53;;;20.40;60.40;;;;;;5028715;28;20153;-51
2023/09/08 01:41:12;;;;;;;4.90;4.40;;;20.40;60.60;;;;;;5031565;28;20051;-56
2023/09/08 01:43:41;;;;;;;4.93;4.43;;;20.40;60.70;;;;;;5028610;28;20059;-53
2023/09/08 01:46:08;;;;;;;4.97;4.47;;;20.40;61.00;;;;;;5029659;28;20041;-55
2023/09/08 01:48:35;;;;;;;4.35;3.95;;;20.40;60.70;;;;;;5029144;28;20136;-54
2023/09/08 01:51:02;;;;;;;6.43;4.65;;;20.30;60.80;;;;;;5029106;28;20049;-55
2023/09/08 01:53:32;;;;;;;5.03;4.53;;;20.30;60.80;;;;;;5029499;28;20483;-54
2023/09/08 01:55:59;;;;;;;5.53;5.03;;;20.30;60.90;;;;;;5030757;28;20037;-54
2023/09/08 01:58:30;;;;;;;6.38;4.63;;;20.30;60.90;;;;;;5029100;28;20041;-55
2023/09/08 02:01:05;;;;;;;6.63;5.00;;;20.30;60.90;;;;;;5028888;28;20096;-53
2023/09/08 02:03:34;;;;;;;4.88;4.38;;;20.30;60.80;;;;;;5023838;28;20128;-55
2023/09/08 02:06:01;;;;;;;5.93;4.97;;;20.30;60.90;;;;;;5029979;28;20041;-52
2023/09/08 02:08:30;;;;;;;5.80;4.90;;;20.30;61.00;;;;;;5029356;28;20115;-53
2023/09/08 02:11:00;;;;;;;5.32;4.82;;;20.30;61.00;;;;;;5027633;28;20049;-54
2023/09/08 02:13:28;;;;;;;4.82;4.15;;;20.30;61.00;;;;;;5025618;28;20054;-54
2023/09/08 02:15:55;;;;;;;5.65;5.15;;;20.20;60.90;;;;;;5029019;28;20111;-54
2023/09/08 02:18:24;;;;;;;5.82;5.25;;;20.20;61.00;;;;;;5027402;28;20050;-55
2023/09/08 02:20:50;;;;;;;6.43;4.63;;;20.20;61.20;;;;;;5029240;28;20080;-55
2023/09/08 02:23:17;;;;;;;5.38;4.88;;;20.20;61.20;;;;;;5030743;28;20045;-56
2023/09/08 02:25:44;;;;;;;5.20;4.72;;;20.20;61.20;;;;;;5027157;28;20119;-52
2023/09/08 02:28:13;;;;;;;5.60;5.10;;;20.10;61.20;;;;;;5029121;28;20083;-56
2023/09/08 02:30:40;;;;;;;5.45;4.78;;;20.10;61.30;;;;;;5028847;28;20049;-54
2023/09/08 02:33:08;;;;;;;5.68;4.72;;;20.10;61.30;;;;;;5025677;28;20053;-56
2023/09/08 02:35:40;;;;;;;5.80;4.80;;;20.10;61.40;;;;;;5029717;28;20042;-55
2023/09/08 02:38:07;;;;;;;7.88;5.10;;;20.10;61.40;;;;;;5028591;28;20440;-54
2023/09/08 02:40:34;;;;;;;5.95;4.97;;;20.30;61.50;;;;;;5028456;28;20120;-54
2023/09/08 02:43:06;;;;;;;4.63;4.22;;;20.10;61.50;;;;;;5026330;28;20045;-53
2023/09/08 02:45:33;;;;;;;5.50;5.00;;;20.10;61.60;;;;;;5028240;28;20095;-54
2023/09/08 02:48:03;;;;;;;6.18;5.68;;;20.10;61.80;;;;;;5028979;28;20140;-53
2023/09/08 02:50:30;;;;;;;7.30;5.68;;;20.00;61.80;;;;;;5029824;28;20056;-56
2023/09/08 02:52:59;;;;;;;5.25;4.82;;;20.10;61.90;;;;;;5027989;28;20136;-52
2023/09/08 02:55:34;;;;;;;5.60;5.10;;;20.00;62.00;;;;;;5029734;28;20504;-54
2023/09/08 02:58:01;;;;;;;5.22;4.72;;;20.00;62.20;;;;;;5025161;28;20076;-55
2023/09/08 03:00:31;;;;;;;5.60;4.60;;;20.00;62.00;;;;;;5026498;28;20042;-54
2023/09/08 03:03:03;;;;;;;5.83;4.73;;;20.00;61.80;;;;;;5039311;28;20057;-52
2023/09/08 03:05:36;;;;;;;6.03;5.53;;;20.00;61.70;;;;;;5029887;28;20052;-53
2023/09/08 03:08:10;;;;;;;5.28;4.78;;;20.00;61.90;;;;;;5028480;28;20145;-54
2023/09/08 03:10:42;;;;;;;4.63;4.22;;;19.90;61.80;;;;;;5027481;28;20053;-56
2023/09/08 03:13:11;;;;;;;5.55;4.65;;;19.90;61.90;;;;;;5027214;28;20099;-56
2023/09/08 03:15:41;;;;;;;5.22;4.22;;;19.90;61.80;;;;;;5027274;28;20049;-52
2023/09/08 03:18:08;;;;;;;5.63;5.10;;;19.90;61.90;;;;;;5025370;28;20030;-56
2023/09/08 03:20:37;;;;;;;4.97;4.47;;;19.90;61.80;;;;;;5029414;28;20043;-55
2023/09/08 03:23:07;;;;;;;4.72;4.25;;;19.80;61.80;;;;;;5027961;28;20037;-55
2023/09/08 03:25:39;;;;;;;5.85;4.80;;;19.80;61.70;;;;;;5027593;28;20037;-54
2023/09/08 03:28:06;;;;;;;5.95;4.25;;;19.70;61.60;;;;;;5025661;28;20049;-53
2023/09/08 03:30:42;;;;;;;6.57;4.65;;;19.80;61.80;;;;;;5027689;28;20069;-55
2023/09/08 03:33:18;;;;;;;4.90;4.15;;;19.80;61.80;;;;;;5040367;28;20059;-52
2023/09/08 03:35:46;;;;;;;5.28;4.78;;;19.70;61.80;;;;;;5027534;28;20051;-53
2023/09/08 03:38:13;;;;;;;5.47;4.97;;;19.70;61.90;;;;;;5027501;28;20049;-54
2023/09/08 03:40:40;;;;;;;5.35;4.85;;;19.70;61.90;;;;;;5027488;28;20041;-54
2023/09/08 03:43:07;;;;;;;5.18;4.72;;;19.70;61.90;;;;;;5027549;28;20124;-55
2023/09/08 03:45:33;;;;;;;4.47;4.07;;;19.60;61.80;;;;;;5025845;28;20050;-54
2023/09/08 03:48:00;;;;;;;5.10;4.60;;;19.60;62.00;;;;;;5027664;28;20053;-54
2023/09/08 03:50:29;;;;;;;4.60;4.18;;;19.60;62.00;;;;;;5020739;28;20419;-54
2023/09/08 03:52:58;;;;;;;5.30;4.60;;;19.50;62.00;;;;;;5027863;28;20045;-55
2023/09/08 03:55:25;;;;;;;6.90;4.65;;;19.60;62.10;;;;;;5028897;28;20439;-56
2023/09/08 03:57:54;;;;;;;6.40;4.60;;;19.60;62.10;;;;;;5027093;28;20042;-55
2023/09/08 04:00:23;;;;;;;6.50;5.30;;;19.50;62.30;;;;;;5023554;28;20041;-53
2023/09/08 04:02:56;;;;;;;5.25;4.75;;;19.50;62.10;;;;;;5026447;28;20045;-55
2023/09/08 04:05:28;;;;;;;;;;;19.50;62.40;;;;;;5022313;28;20044;-56
2023/09/08 04:07:57;;;;;;;5.70;4.22;;;19.60;62.00;;;;;;5042038;23;19921;-53
2023/09/08 04:10:25;;;;;;;6.57;4.78;;;19.50;61.70;;;;;;5048347;28;20073;-54
2023/09/08 04:12:54;;;;;;;5.25;4.75;;;19.50;61.90;;;;;;5036293;28;20041;-50
2023/09/08 04:15:27;;;;;;;5.78;4.45;;;19.40;61.90;;;;;;5010997;28;20130;-51
2023/09/08 04:17:57;;;;;;;5.03;4.47;;;19.40;62.20;;;;;;5044654;28;20127;-51
2023/09/08 04:20:28;;;;;;;7.30;5.13;;;19.40;62.20;;;;;;5030818;28;20041;-53
2023/09/08 04:22:54;;;;;;;6.50;4.50;;;19.30;62.20;;;;;;5029363;28;20136;-51
2023/09/08 04:25:21;;;;;;;5.03;4.55;;;19.30;62.10;;;;;;5047881;28;20095;-54
2023/09/08 04:27:53;;;;;;;6.22;5.20;;;19.30;62.20;;;;;;5047729;28;20422;-53
2023/09/08 04:30:24;;;;;;;7.55;4.72;;;19.20;62.30;;;;;;5024046;28;20076;-53
2023/09/08 04:32:51;;;;;;;5.85;4.80;;;19.20;62.40;;;;;;5028897;28;20045;-50
2023/09/08 04:35:20;;;;;;;5.18;4.72;;;19.20;62.30;;;;;;5048252;28;20039;-52
2023/09/08 04:37:47;;;;;;;6.68;5.07;;;19.10;62.20;;;;;;5029655;28;20136;-54
2023/09/08 04:40:16;;;;;;;4.65;4.25;;;19.10;62.30;;;;;;5047004;28;20075;-52
2023/09/08 04:42:45;;;;;;;5.28;4.75;;;19.20;62.40;;;;;;5045826;28;20040;-51
2023/09/08 04:45:14;;;;;;;5.60;4.55;;;19.10;62.40;;;;;;5051101;28;20100;-54
2023/09/08 04:47:49;;;;;;;5.00;4.50;;;19.10;62.40;;;;;;5047545;28;20431;-53
2023/09/08 04:50:20;;;;;;;5.20;4.70;;;19.10;62.80;;;;;;5042682;28;20483;-55
2023/09/08 04:52:49;;;;;;;4.82;4.32;;;19.10;62.50;;;;;;5036391;28;20107;-55
2023/09/08 04:55:17;;;;;;;4.63;4.22;;;19.00;62.50;;;;;;5044595;28;20041;-54
2023/09/08 04:57:44;;;;;;;5.32;4.32;;;19.00;62.70;;;;;;5046530;28;20116;-55
2023/09/08 05:00:11;;;;;;;4.88;4.47;;;19.00;62.60;;;;;;5043597;28;20105;-55
2023/09/08 05:02:38;;;;;;;5.45;4.80;;;19.00;62.70;;;;;;5028644;28;20416;-54
2023/09/08 05:05:06;;;;;;;7.28;5.15;;;18.90;62.80;;;;;;5030154;28;20095;-55
2023/09/08 05:07:35;;;;;;;7.00;5.05;;;18.90;62.80;;;;;;5029557;28;20048;-54
2023/09/08 05:10:05;;;;;;;6.45;4.68;;;18.90;63.00;;;;;;5046827;28;20045;-55
2023/09/08 05:12:34;;;;;;;5.80;5.03;;;18.90;63.00;;;;;;5046038;28;20041;-55
2023/09/08 05:15:06;;;;;;;7.35;6.00;;;18.90;63.10;;;;;;5029996;28;20434;-54
2023/09/08 05:17:35;;;;;;;5.95;4.82;;;18.90;63.20;;;;;;5046620;28;20132;-55
2023/09/08 05:20:03;;;;;;;7.65;5.07;;;18.90;63.30;;;;;;5045205;28;20033;-53
2023/09/08 05:22:30;;;;;;;6.07;5.47;;;18.90;63.40;;;;;;5044901;28;20044;-52
2023/09/08 05:24:56;;;;;;;5.43;4.90;;;18.90;63.50;;;;;;5051430;28;20033;-55
2023/09/08 05:27:24;;;;;;;5.68;5.15;;;18.90;63.60;;;;;;5034313;28;20037;-54
2023/09/08 05:29:51;;;;;;;4.50;4.13;;;18.90;63.70;;;;;;5043923;28;20079;-54
2023/09/08 05:32:18;;;;;;;5.00;4.50;;;18.90;64.00;;;;;;5044649;28;20071;-54
2023/09/08 05:34:45;;;;;;;4.72;4.35;;;18.90;63.90;;;;;;5027384;28;20042;-54
2023/09/08 05:37:12;;;;;;;5.30;4.80;;;19.00;64.00;;;;;;5065231;28;20525;-53
2023/09/08 05:39:39;;;;;;;6.53;4.97;;;19.00;64.00;;;;;;5032948;28;20063;-53
2023/09/08 05:42:05;;;;;;;5.80;5.20;;;18.90;64.00;;;;;;5027016;28;20147;-53
2023/09/08 05:44:33;;;;;;;6.55;5.10;;;19.00;64.10;;;;;;5032270;28;20049;-54
2023/09/08 05:47:00;;;;;;;5.32;4.82;;;19.00;64.20;;;;;;5050546;28;20065;-54
2023/09/08 05:49:30;;;;;;;6.25;5.40;;;19.00;64.30;;;;;;5031378;28;20087;-53
2023/09/08 05:51:59;;;;;;;7.88;4.78;;;19.00;64.40;;;;;;5028121;28;20162;-53
2023/09/08 05:54:31;;;;;;;7.90;6.17;;;19.00;65.20;;;;;;5058218;28;20418;-53
2023/09/08 05:56:58;;;;;;;6.55;5.43;;;19.10;64.40;;;;;;5044858;28;20131;-50
2023/09/08 05:59:29;;;;;;;7.05;6.00;;;19.10;64.50;;;;;;5045202;28;20045;-51
2023/09/08 06:01:55;;;;;;;6.82;5.68;;;19.10;64.70;;;;;;5041331;28;20088;-54
2023/09/08 06:04:22;;;;;;;6.70;6.05;;;19.10;64.80;;;;;;5030140;28;20053;-55
2023/09/08 06:06:49;;;;;;;6.20;5.43;;;19.10;64.80;;;;;;5044121;28;20080;-54
2023/09/08 06:09:16;;;;;;;5.70;5.00;;;19.20;65.00;;;;;;5051477;28;20037;-54
2023/09/08 06:11:43;;;;;;;6.93;6.25;;;19.20;65.20;;;;;;5029716;28;20044;-54
2023/09/08 06:14:12;;;;;;;6.22;5.60;;;19.30;65.30;;;;;;5049936;28;20068;-54
2023/09/08 06:16:41;;;;;;;6.47;5.63;;;19.30;65.40;;;;;;5028622;28;20041;-55
2023/09/08 06:19:08;;;;;;;7.40;6.70;;;19.30;65.40;;;;;;5043520;28;20423;-54
2023/09/08 06:21:35;;;;;;;7.50;6.28;;;19.40;65.60;;;;;;5050345;28;20044;-55
2023/09/08 06:24:02;;;;;;;7.13;5.68;;;19.40;65.70;;;;;;5032479;28;20048;-55
2023/09/08 06:26:29;;;;;;;7.38;6.63;;;19.40;65.80;;;;;;5039057;28;20045;-55
2023/09/08 06:28:59;;;;;;;9.43;7.15;;;19.50;65.90;;;;;;5048874;28;20426;-55
2023/09/08 06:31:25;;;;;;;9.32;7.28;;;19.50;66.10;;;;;;5032483;28;20045;-55
2023/09/08 06:33:52;;;;;;;7.75;6.72;;;19.50;66.20;;;;;;5030967;28;20057;-55
2023/09/08 06:36:20;;;;;;;12.48;8.13;;;19.60;66.40;;;;;;5049180;28;20120;-55
2023/09/08 06:38:47;;;;;;;8.60;7.80;;;19.70;66.70;;;;;;5049146;28;20045;-54
2023/09/08 06:41:17;;;;;;;10.13;8.18;;;19.70;66.80;;;;;;5043541;28;20056;-55
2023/09/08 06:43:46;;;;;;;7.90;7.15;;;19.70;67.20;;;;;;5032574;28;20056;-55
2023/09/08 06:46:20;;;;;;;8.32;7.55;;;19.80;67.10;;;;;;5049365;28;20056;-55
2023/09/08 06:48:47;;;;;;;9.07;7.78;;;19.80;67.10;;;;;;5045178;28;20057;-55
2023/09/08 06:51:14;;;;;;;9.07;8.23;;;19.90;67.20;;;;;;5036741;28;20136;-55
2023/09/08 06:53:43;;;;;;;9.82;8.13;;;19.90;67.40;;;;;;5048603;28;20423;-55
2023/09/08 06:56:10;;;;;;;8.95;7.90;;;20.00;67.50;;;;;;5049443;28;20060;-55
2023/09/08 06:58:37;;;;;;;8.60;7.55;;;20.00;67.50;;;;;;5046919;28;20041;-54
2023/09/08 07:01:04;;;;;;;9.30;7.78;;;20.10;67.70;;;;;;5031963;28;20037;-55
2023/09/08 07:03:36;;;;;;;8.63;7.72;;;20.20;67.80;;;;;;5041396;28;20057;-55
2023/09/08 07:06:05;;;;;;;10.13;7.75;;;20.20;67.80;;;;;;5034343;28;20078;-54
2023/09/08 07:08:32;;;;;;;10.52;7.78;;;20.30;67.60;;;;;;5048749;28;20131;-55
2023/09/08 07:10:59;;;;;;;8.63;6.88;;;20.30;67.80;;;;;;5031242;28;20055;-54
2023/09/08 07:13:26;;;;;;;8.15;7.40;;;20.40;68.00;;;;;;5029076;28;20041;-55
2023/09/08 07:15:53;;;;;;;9.38;6.70;;;20.50;67.90;;;;;;5049971;28;20091;-55
2023/09/08 07:18:20;;;;;;;8.35;6.68;;;20.50;67.70;;;;;;5031912;28;20049;-55
2023/09/08 07:20:50;;;;;;;10.70;7.63;;;20.60;67.80;;;;;;5043079;28;20069;-54
2023/09/08 07:23:19;;;;;;;9.55;7.35;;;20.70;67.90;;;;;;5030091;28;20124;-54
2023/09/08 07:25:49;;;;;;;9.38;6.88;;;20.70;67.90;;;;;;5034059;28;20041;-54
2023/09/08 07:28:20;;;;;;;7.45;6.75;;;20.80;68.00;;;;;;5038267;28;20111;-55
2023/09/08 07:31:03;;;;;;;8.35;7.40;;;20.90;68.00;;;;;;5049356;28;20041;-54
2023/09/08 07:33:35;;;;;;;11.65;7.05;;;21.00;68.00;;;;;;5028003;28;20047;-55
2023/09/08 07:36:05;;;;;;;8.63;7.28;;;21.00;67.50;;;;;;5030802;28;20045;-55
2023/09/08 07:38:33;;;;;;;7.18;6.47;;;21.20;68.00;;;;;;5023045;28;20419;-55
2023/09/08 07:41:02;;;;;;;8.98;6.82;;;21.20;67.40;;;;;;5030337;28;20048;-56
2023/09/08 07:43:29;;;;;;;8.45;7.45;;;21.30;67.30;;;;;;5043972;28;20044;-55
2023/09/08 07:45:56;;;;;;;7.80;6.25;;;21.30;67.50;;;;;;5036539;28;20057;-55
2023/09/08 07:48:23;;;;;;;7.03;6.30;;;21.40;67.00;;;;;;5048551;28;20142;-55
2023/09/08 07:50:50;;;;;;;8.07;6.75;;;21.50;66.60;;;;;;5048140;28;20071;-55
2023/09/08 07:53:17;;;;;;;9.48;6.35;;;21.50;66.50;;;;;;5047070;28;20099;-55
2023/09/08 07:55:43;;;;;;;7.00;6.30;;;21.70;66.50;;;;;;5047572;28;20726;-54
2023/09/08 07:58:10;;;;;;;7.53;6.45;;;21.70;65.90;;;;;;5042316;28;20072;-56
2023/09/08 08:00:37;;;;;;;7.35;6.03;;;21.80;66.10;;;;;;5046566;28;20037;-55
2023/09/08 08:03:05;;;;;;;8.60;6.68;;;21.90;66.00;;;;;;5039445;28;20076;-55
2023/09/08 08:05:32;;;;;;;6.95;6.35;;;22.00;66.00;;;;;;5041828;28;20102;-56
2023/09/08 08:07:59;;;;;;;7.20;6.47;;;22.00;65.70;;;;;;5048027;28;20045;-55
2023/09/08 08:10:26;;;;;;;6.65;6.05;;;22.10;65.50;;;;;;5049183;28;20037;-51
2023/09/08 08:12:52;;;;;;;8.10;6.38;;;22.20;65.60;;;;;;5044099;28;20045;-56
2023/09/08 08:15:23;;;;;;;7.05;6.43;;;22.30;65.50;;;;;;5035355;28;20091;-51
2023/09/08 08:17:50;;;;;;;9.98;5.72;;;22.30;65.20;;;;;;5048008;28;20396;-55
2023/09/08 08:20:17;;;;;;;7.28;6.57;;;22.40;65.20;;;;;;5045258;28;20039;-54
2023/09/08 08:22:45;;;;;;;6.90;5.80;;;22.50;64.90;;;;;;5044648;28;20055;-55
2023/09/08 08:25:12;;;;;;;7.38;6.32;;;22.60;64.90;;;;;;5049712;28;20056;-55
2023/09/08 08:27:40;;;;;;;6.50;5.72;;;22.60;64.80;;;;;;5048345;28;20053;-56
2023/09/08 08:30:07;;;;;;;6.90;6.20;;;22.80;64.60;;;;;;5046957;28;20813;-58
2023/09/08 08:32:34;;;;;;;8.80;5.95;;;22.90;64.30;;;;;;5045375;28;20517;-55
2023/09/08 08:35:01;;;;;;;6.45;5.85;;;22.90;64.40;;;;;;5049348;28;20049;-55
2023/09/08 08:37:28;;;;;;;7.25;6.05;;;23.00;64.30;;;;;;5047297;28;20652;-55
2023/09/08 08:39:54;;;;;;;10.02;6.32;;;23.00;63.70;;;;;;5049747;28;20111;-55
2023/09/08 08:42:24;;;;;;;7.05;5.90;;;23.10;64.30;;;;;;5045045;28;20087;-54
2023/09/08 08:44:51;;;;;;;6.80;5.72;;;23.40;63.60;;;;;;5047192;28;20438;-56
2023/09/08 08:47:19;;;;;;;7.00;5.32;;;23.30;63.30;;;;;;5047722;28;20069;-54
2023/09/08 08:49:48;;;;;;;8.45;6.60;;;23.40;63.30;;;;;;5048596;28;20041;-55
2023/09/08 08:52:15;;;;;;;6.47;5.82;;;23.40;63.20;;;;;;5045429;28;20073;-55
2023/09/08 08:54:42;;;;;;;9.30;6.15;;;23.50;63.20;;;;;;5048221;28;20051;-54
2023/09/08 08:57:10;;;;;;;7.53;5.65;;;23.60;63.30;;;;;;5051363;28;20036;-56
2023/09/08 08:59:37;;;;;;;6.90;5.75;;;23.60;62.90;;;;;;5046597;28;20041;-55
2023/09/08 09:02:05;;;;;;;8.00;6.53;;;23.70;62.70;;;;;;5044531;28;20119;-55
2023/09/08 09:04:32;;;;;;;7.25;5.85;;;23.70;62.80;;;;;;5045642;28;20037;-55
2023/09/08 09:06:59;;;;;;;7.50;5.80;;;23.80;62.40;;;;;;5051305;28;20047;-51
2023/09/08 09:09:26;;;;;;;10.73;6.28;;;23.90;62.30;;;;;;5052444;28;20092;-56
2023/09/08 09:11:53;;;;;;;6.95;5.95;;;23.90;62.30;;;;;;5053863;28;20045;-56
2023/09/08 09:14:20;;;;;;;7.72;6.00;;;24.00;61.90;;;;;;5047984;28;20065;-56
2023/09/08 09:16:47;;;;;;;7.50;5.43;;;24.10;61.70;;;;;;5047927;28;20522;-55
2023/09/08 09:19:30;;;;;;;6.93;5.38;;;24.20;61.90;;;;;;5051000;28;20631;-54
2023/09/08 09:21:58;;;;;;;7.70;5.70;;;24.20;61.80;;;;;;5048029;28;20491;-55
2023/09/08 09:24:37;;;;;;;7.53;6.00;;;24.30;61.70;;;;;;5052164;28;20041;-55
2023/09/08 09:27:06;;;;;;;7.28;5.85;;;24.40;61.70;;;;;;5048201;28;20402;-56
2023/09/08 09:29:43;;;;;;;6.32;5.72;;;24.40;61.90;;;;;;5045538;28;20425;-55
2023/09/08 09:32:09;;;;;;;6.57;5.82;;;24.50;60.90;;;;;;5047557;28;20103;-55
2023/09/08 09:34:53;;;;;;;9.40;5.65;;;24.60;60.70;;;;;;5051602;28;20065;-55
2023/09/08 09:37:20;;;;;;;8.18;6.30;;;24.70;60.30;;;;;;5047720;28;20045;-56
2023/09/08 09:39:52;;;;;;;6.75;6.10;;;24.70;60.80;;;;;;5048295;28;20037;-55
2023/09/08 09:42:20;;;;;;;7.15;5.43;;;24.80;60.40;;;;;;5050795;28;20599;-56
2023/09/08 09:44:48;;;;;;;7.22;6.03;;;24.80;61.10;;;;;;5054746;28;20754;-56
2023/09/08 09:47:16;;;;;;;8.02;5.82;;;24.90;60.90;;;;;;5047609;28;20044;-56
2023/09/08 09:49:47;;;;;;;10.27;5.95;;;25.00;60.90;;;;;;5050817;28;20491;-55
2023/09/08 09:52:23;;;;;;;6.73;5.73;;;25.10;61.10;;;;;;5053819;28;20048;-55
2023/09/08 09:54:54;;;;;;;7.57;6.55;;;25.10;61.10;;;;;;5045817;28;20327;-55
2023/09/08 09:57:23;;;;;;;8.37;5.57;;;25.20;60.80;;;;;;5050265;28;20068;-56
2023/09/08 09:59:51;;;;;;;12.80;6.22;;;25.30;60.40;;;;;;5050603;28;20033;-56
2023/09/08 10:02:21;;;;;;;7.25;6.22;;;25.40;59.60;;;;;;5042863;28;20053;-55
2023/09/08 10:04:50;;;;;;;5.60;5.07;;;25.40;60.20;;;;;;5044345;28;20040;-57
2023/09/08 10:07:17;;;;;;;6.43;5.70;;;25.50;59.30;;;;;;5044852;28;20045;-57
2023/09/08 10:09:44;;;;;;;8.18;6.00;;;25.60;59.60;;;;;;5050144;28;20116;-56
2023/09/08 10:12:15;;;;;;;6.60;5.05;;;25.60;58.40;;;;;;5044624;28;20065;-57
2023/09/08 10:14:43;;;;;;;6.40;4.68;;;25.70;58.60;;;;;;5048787;28;20576;-56
2023/09/08 10:17:16;;;;;;;6.88;5.45;;;25.80;58.60;;;;;;5048137;28;20057;-57
2023/09/08 10:19:51;;;;;;;6.47;5.40;;;25.90;57.90;;;;;;5043118;28;20120;-57
2023/09/08 10:22:22;;;;;;;6.05;5.47;;;25.90;57.30;;;;;;5047293;28;20076;-56
2023/09/08 10:24:52;;;;;;;9.70;5.25;;;26.00;57.90;;;;;;5046799;28;20040;-57
2023/09/08 10:27:21;;;;;;;6.68;6.07;;;26.10;57.40;;;;;;5049711;28;20037;-57
2023/09/08 10:29:49;;;;;;;5.40;4.90;;;26.20;57.10;;;;;;5049732;28;20043;-57
2023/09/08 10:32:18;;;;;;;9.60;5.18;;;26.20;56.60;;;;;;5044590;28;20099;-57
2023/09/08 10:34:46;;;;;;;8.10;5.15;;;26.30;57.40;;;;;;5049203;28;20503;-57
2023/09/08 10:37:25;;;;;;;7.90;5.22;;;26.30;57.20;;;;;;5049463;28;20660;-57
2023/09/08 10:39:52;;;;;;;5.53;5.00;;;26.40;57.20;;;;;;5042487;28;20073;-57
2023/09/08 10:42:19;;;;;;;5.45;4.93;;;26.50;56.70;;;;;;5040573;28;20048;-57
2023/09/08 10:44:51;;;;;;;6.25;5.07;;;26.50;56.90;;;;;;5042298;28;20045;-57
2023/09/08 10:47:22;;;;;;;5.47;4.97;;;26.60;56.70;;;;;;5044902;28;20037;-57
2023/09/08 10:49:53;;;;;;;6.15;5.35;;;26.70;56.50;;;;;;5046282;28;20116;-56
2023/09/08 10:52:23;;;;;;;8.68;5.38;;;26.80;56.90;;;;;;5043826;28;20049;-57
2023/09/08 10:54:52;;;;;;;6.30;5.70;;;26.80;56.30;;;;;;5051263;28;20047;-57
2023/09/08 10:57:22;;;;;;;9.55;6.22;;;26.90;55.60;;;;;;5041541;28;20126;-57
2023/09/08 10:59:56;;;;;;;5.95;5.00;;;27.00;54.80;;;;;;5058990;23;20045;-52
2023/09/08 11:02:38;;;;;;;5.45;4.95;;;27.10;54.80;;;;;;5014597;28;20148;-54
2023/09/08 11:05:08;;;;;;;5.55;5.15;;;27.10;55.40;;;;;;5026193;28;20064;-51
2023/09/08 11:07:37;;;;;;;7.10;6.10;;;27.10;55.60;;;;;;5023652;28;20069;-55
2023/09/08 11:10:05;;;;;;;8.35;6.05;;;27.20;55.40;;;;;;5028583;28;20100;-56
2023/09/08 11:12:32;;;;;;;6.35;4.93;;;27.20;55.80;;;;;;5025174;28;20136;-56
2023/09/08 11:15:03;;;;;;;6.47;5.00;;;27.30;55.90;;;;;;5028349;28;20060;-54
2023/09/08 11:17:34;;;;;;;5.75;5.25;;;27.40;54.60;;;;;;5024409;28;20099;-55
2023/09/08 11:20:10;;;;;;;5.30;4.80;;;27.50;54.70;;;;;;5023518;28;20064;-55
2023/09/08 11:22:40;;;;;;;7.70;5.15;;;27.60;54.10;;;;;;5024750;28;20037;-55
2023/09/08 11:25:10;;;;;;;5.78;5.18;;;27.70;54.00;;;;;;5027801;28;20415;-52
2023/09/08 11:27:39;;;;;;;5.65;5.13;;;27.70;54.20;;;;;;5010800;28;20503;-54
2023/09/08 11:30:08;;;;;;;6.60;5.45;;;27.80;54.00;;;;;;5028603;28;20068;-58
2023/09/08 11:32:35;;;;;;;5.35;4.85;;;27.80;54.00;;;;;;5027843;28;20116;-54
2023/09/08 11:35:08;;;;;;;6.93;5.40;;;27.90;54.00;;;;;;5027745;28;20041;-56
2023/09/08 11:37:42;;;;;;;5.88;5.28;;;27.90;54.50;;;;;;5029327;28;20133;-52
2023/09/08 11:40:11;;;;;;;6.35;5.20;;;28.00;53.20;;;;;;5027414;28;20045;-52
2023/09/08 11:42:46;;;;;;;5.45;5.00;;;28.10;54.20;;;;;;5026561;28;20790;-55
2023/09/08 11:45:14;;;;;;;5.28;4.47;;;28.20;53.90;;;;;;5027838;28;20052;-52
2023/09/08 11:47:42;;;;;;;5.38;4.90;;;28.20;53.50;;;;;;5027846;28;20069;-55
2023/09/08 11:50:15;;;;;;;5.57;5.15;;;28.20;53.80;;;;;;5023815;28;20042;-52
2023/09/08 11:52:46;;;;;;;6.20;5.20;;;28.30;54.50;;;;;;5022631;28;20057;-55
2023/09/08 11:55:13;;;;;;;6.37;5.73;;;28.40;53.60;;;;;;5025186;28;20099;-53
2023/09/08 11:57:41;;;;;;;6.00;5.45;;;28.40;53.30;;;;;;5027612;28;20300;-56
2023/09/08 12:00:10;;;;;;;5.72;5.13;;;28.50;53.30;;;;;;5026386;28;20123;-53
2023/09/08 12:02:37;;;;;;;5.25;4.85;;;28.60;53.80;;;;;;5025726;28;20552;-56
2023/09/08 12:05:04;;;;;;;5.68;5.22;;;28.60;53.60;;;;;;5027592;28;20034;-55
2023/09/08 12:07:31;;;;;;;5.50;5.00;;;28.70;53.70;;;;;;5028625;28;20554;-56
2023/09/08 12:09:58;;;;;;;6.28;5.38;;;28.80;54.20;;;;;;5028285;28;20065;-55
2023/09/08 12:12:26;;;;;;;5.35;4.88;;;28.90;53.60;;;;;;5027544;28;20424;-55
2023/09/08 12:14:53;;;;;;;6.03;5.43;;;28.90;53.30;;;;;;5027144;28;20073;-56
2023/09/08 12:17:24;;;;;;;5.60;5.10;;;29.00;54.10;;;;;;5027547;28;20415;-55
2023/09/08 12:19:51;;;;;;;6.83;5.77;;;29.10;53.70;;;;;;5026865;28;20061;-55
2023/09/08 12:22:22;;;;;;;6.03;5.32;;;29.10;53.50;;;;;;5026352;28;20113;-55
2023/09/08 12:24:56;;;;;;;5.43;4.93;;;29.20;53.40;;;;;;5028180;28;20042;-56
2023/09/08 12:27:23;;;;;;;11.15;5.68;;;29.30;52.90;;;;;;5028354;28;20037;-55
2023/09/08 12:29:58;;;;;;;5.43;5.03;;;29.30;52.10;;;;;;5031378;28;20399;-53
2023/09/08 12:32:25;;;;;;;7.18;5.60;;;29.50;51.60;;;;;;5026898;28;20037;-56
2023/09/08 12:34:52;;;;;;;5.93;5.40;;;29.50;52.80;;;;;;5032602;28;20146;-54
2023/09/08 12:37:29;;;;;;;6.68;4.85;;;29.60;52.00;;;;;;5031089;28;20041;-56
2023/09/08 12:39:56;;;;;;;7.15;5.53;;;29.70;52.60;;;;;;5033127;28;20041;-55
2023/09/08 12:42:29;;;;;;;6.95;5.38;;;29.80;52.50;;;;;;5031345;28;20047;-54
2023/09/08 12:44:56;;;;;;;4.88;4.57;;;29.80;52.30;;;;;;5034701;28;20119;-53
2023/09/08 12:47:22;;;;;;;6.05;5.18;;;29.90;51.10;;;;;;5033612;28;20079;-55
2023/09/08 12:49:49;;;;;;;7.18;5.18;;;30.00;51.20;;;;;;5027771;28;20132;-55
2023/09/08 12:52:16;;;;;;;5.82;5.22;;;30.20;50.70;;;;;;5030535;28;20507;-56
2023/09/08 12:54:42;;;;;;;6.53;4.72;;;30.20;50.50;;;;;;5032907;28;20069;-56